Time;durP1;ratioP1;P1;durP2;ratioP2;P2;SDS_P1;SDS_P2;PMS_P1;PMS_P2;Temp;Humidity;BMP_temperature;BMP_pressure;BME280_temperature;BME280_humidity;BME280_pressure;Samples;Min_cycle;Max_cycle;Signal;HPM_P1;HPM_P2
2022/07/16 00:01:25;;;;;;;4.20;2.37;;;;;;;16.49;81.51;99813.88;1673880;85;21035;-73
2022/07/16 00:04:02;;;;;;;2.00;1.90;;;;;;;16.47;82.59;99814.16;1673201;84;21062;-74
2022/07/16 00:06:29;;;;;;;6.70;3.30;;;;;;;16.47;83.16;99815.52;1680917;85;21001;-74
2022/07/16 00:08:56;;;;;;;5.15;3.50;;;;;;;16.52;84.28;99818.73;1682828;84;22914;-71
2022/07/16 00:11:23;;;;;;;3.47;3.17;;;;;;;16.53;85.16;99814.92;1682989;85;20957;-70
2022/07/16 00:13:49;;;;;;;3.50;3.20;;;;;;;16.54;85.78;99819.27;1682916;85;21024;-71
2022/07/16 00:16:16;;;;;;;3.37;2.83;;;;;;;16.52;86.51;99813.30;1673487;85;21040;-73
2022/07/16 00:21:29;;;;;;;3.35;2.83;;;;;;;16.48;88.65;99819.86;1686464;84;21354;-73
2022/07/16 00:23:56;;;;;;;7.50;2.92;;;;;;;16.45;90.16;99817.69;1668546;86;21015;-73
2022/07/16 00:26:23;;;;;;;2.77;2.58;;;;;;;16.46;91.75;99824.75;1686744;85;21017;-71
2022/07/16 00:28:49;;;;;;;3.58;3.25;;;;;;;16.49;92.52;99816.59;1682892;85;21665;-76
2022/07/16 00:31:17;;;;;;;4.15;3.08;;;;;;;16.51;92.72;99819.27;1686704;85;21089;-77
2022/07/16 00:33:43;;;;;;;16.37;2.95;;;;;;;16.55;92.83;99818.14;1669963;85;21138;-78
2022/07/16 00:36:11;;;;;;;3.22;2.92;;;;;;;16.59;92.95;99811.65;1686737;85;21037;-73
2022/07/16 00:38:38;;;;;;;4.75;3.20;;;;;;;16.59;93.03;99815.72;1669218;85;21624;-72
2022/07/16 00:41:05;;;;;;;4.37;3.42;;;;;;;16.60;93.32;99822.20;1686883;85;21064;-71
2022/07/16 00:43:47;;;;;;;3.12;2.90;;;;;;;16.61;93.62;99819.75;1668717;86;21513;-70
2022/07/16 00:46:15;;;;;;;4.17;3.30;;;;;;;16.61;93.82;99818.95;1668031;85;21135;-71
2022/07/16 00:48:43;;;;;;;3.92;3.58;;;;;;;16.59;93.90;99818.44;1668441;85;20976;-71
2022/07/16 00:51:10;;;;;;;3.70;3.25;;;;;;;16.55;93.96;99818.14;1678619;84;21532;-71
2022/07/16 00:53:37;;;;;;;2.65;2.45;;;;;;;16.52;93.84;99818.73;1679633;85;21080;-72
2022/07/16 00:56:10;;;;;;;3.85;2.92;;;;;;;16.48;93.74;99817.14;1680724;84;21052;-70
2022/07/16 00:58:38;;;;;;;8.93;3.20;;;;;;;16.46;93.58;99818.50;1681289;85;21091;-70
2022/07/16 01:01:06;;;;;;;6.00;4.33;;;;;;;16.42;93.21;99820.98;1676296;85;21037;-72
2022/07/16 01:03:33;;;;;;;4.75;3.17;;;;;;;16.38;92.77;99822.66;1675953;85;21135;-71
2022/07/16 01:06:04;;;;;;;3.00;2.80;;;;;;;16.34;92.10;99819.44;1676210;85;21068;-71
2022/07/16 01:08:35;;;;;;;3.12;2.83;;;;;;;16.29;91.48;99827.08;1660732;85;21004;-71
2022/07/16 01:11:05;;;;;;;3.12;2.60;;;;;;;16.25;91.15;99821.14;1660913;85;21068;-70
2022/07/16 01:13:33;;;;;;;5.83;2.87;;;;;;;16.21;91.17;99819.52;1676686;85;22280;-71
2022/07/16 01:15:59;;;;;;;3.05;2.72;;;;;;;16.19;91.09;99824.44;1661049;85;21518;-72
2022/07/16 01:18:26;;;;;;;3.00;2.80;;;;;;;16.20;90.99;99818.47;1660460;85;20996;-72
2022/07/16 01:20:54;;;;;;;4.58;3.27;;;;;;;16.20;91.01;99818.47;1676494;85;21502;-73
2022/07/16 01:23:23;;;;;;;4.25;3.85;;;;;;;16.20;91.02;99821.19;1676721;85;21321;-72
2022/07/16 01:25:50;;;;;;;4.08;3.67;;;;;;;16.19;90.78;99817.66;1675835;85;21028;-70
2022/07/16 01:28:17;;;;;;;4.70;3.40;;;;;;;16.17;90.70;99819.02;1683316;85;21003;-71
2022/07/16 01:30:45;;;;;;;6.95;3.15;;;;;;;16.14;90.75;99817.16;1660779;85;21067;-71
2022/07/16 01:33:31;;;;;;;5.05;3.65;;;;;;;16.12;90.75;99817.97;1676363;85;21091;-72
2022/07/16 01:36:02;;;;;;;3.27;2.98;;;;;;;16.11;90.66;99821.77;1676501;85;21178;-70
2022/07/16 01:38:30;;;;;;;5.70;3.23;;;;;;;16.12;90.45;99827.47;1676468;85;20970;-70
2022/07/16 01:40:57;;;;;;;3.62;3.33;;;;;;;16.12;90.15;99827.47;1676439;85;21889;-71
2022/07/16 01:43:27;;;;;;;6.95;3.20;;;;;;;16.14;89.91;99831.27;1676503;85;21051;-71
2022/07/16 01:45:54;;;;;;;4.17;3.02;;;;;;;16.13;89.63;99830.45;1676317;85;20953;-70
2022/07/16 01:48:21;;;;;;;3.25;2.92;;;;;;;16.10;89.33;99823.42;1649090;85;21268;-70
2022/07/16 01:50:48;;;;;;;5.12;3.55;;;;;;;16.08;89.21;99828.31;1676609;85;21009;-71
2022/07/16 01:53:15;;;;;;;8.25;3.55;;;;;;;16.06;89.17;99830.52;1684418;84;21093;-71
2022/07/16 01:55:42;;;;;;;3.90;2.83;;;;;;;16.08;89.12;99825.60;1685618;85;20996;-71
2022/07/16 01:58:11;;;;;;;2.92;2.72;;;;;;;16.10;88.95;99832.92;1685786;85;21549;-70
2022/07/16 02:00:40;;;;;;;4.28;3.45;;;;;;;16.13;88.82;99826.92;1685658;85;21267;-70
2022/07/16 02:03:07;;;;;;;3.45;3.15;;;;;;;16.16;88.54;99826.92;1685229;84;20995;-71
2022/07/16 02:05:35;;;;;;;6.40;3.15;;;;;;;16.18;88.32;99827.42;1685524;85;21098;-70
2022/07/16 02:08:04;;;;;;;3.52;2.80;;;;;;;16.19;88.04;99827.16;1685824;84;21059;-71
2022/07/16 02:10:31;;;;;;;3.75;3.17;;;;;;;16.23;87.69;99834.98;1685135;85;21017;-70
2022/07/16 02:12:58;;;;;;;6.47;2.92;;;;;;;16.27;87.30;99831.97;1685680;84;21172;-71
2022/07/16 02:15:25;;;;;;;7.55;2.83;;;;;;;16.32;86.93;99829.21;1685635;84;22310;-72
2022/07/16 02:17:51;;;;;;;7.17;3.92;;;;;;;16.38;86.37;99829.44;1667313;85;20996;-70
2022/07/16 02:20:19;;;;;;;9.98;3.72;;;;;;;16.42;85.75;99833.75;1685627;84;20987;-70
2022/07/16 02:22:46;;;;;;;3.65;2.92;;;;;;;16.43;85.18;99832.12;1685777;85;21564;-71
2022/07/16 02:25:13;;;;;;;4.50;3.60;;;;;;;16.44;84.77;99831.57;1685692;84;20998;-70
2022/07/16 02:30:27;;;;;;;5.05;3.15;;;;;;;16.43;84.25;99833.47;1685465;85;21016;-69
2022/07/16 02:32:54;;;;;;;4.97;3.25;;;;;;;16.44;83.91;99831.57;1685669;84;21564;-71
2022/07/16 02:35:21;;;;;;;5.45;3.35;;;;;;;16.45;83.60;99842.70;1685591;84;20960;-71
2022/07/16 02:37:47;;;;;;;6.80;3.47;;;;;;;16.46;83.35;99839.68;1685785;84;21156;-70
2022/07/16 02:40:14;;;;;;;4.53;3.83;;;;;;;16.45;82.96;99847.55;1685741;84;20911;-72
2022/07/16 02:42:41;;;;;;;4.10;3.70;;;;;;;16.43;82.67;99849.77;1685679;84;21541;-71
2022/07/16 02:45:10;;;;;;;5.28;3.92;;;;;;;16.42;82.31;99845.97;1685741;84;21020;-72
2022/07/16 02:47:39;;;;;;;4.37;3.40;;;;;;;16.41;81.82;99847.87;1668490;85;21027;-70
2022/07/16 02:50:07;;;;;;;8.10;3.65;;;;;;;16.42;81.43;99848.67;1685904;84;21160;-70
2022/07/16 02:52:34;;;;;;;7.33;4.12;;;;;;;16.42;81.20;99848.14;1684649;84;21536;-70
2022/07/16 02:55:02;;;;;;;3.98;3.22;;;;;;;16.42;80.86;99850.84;1686750;85;20968;-69
2022/07/16 02:57:29;;;;;;;8.23;4.92;;;;;;;16.39;80.79;99846.00;1682835;84;20946;-72
2022/07/16 02:59:56;;;;;;;4.47;4.08;;;;;;;16.39;80.70;99850.62;1673800;85;21525;-72
2022/07/16 03:02:22;;;;;;;4.72;3.72;;;;;;;16.39;80.57;99841.11;1673621;85;21925;-72
2022/07/16 03:04:49;;;;;;;3.58;2.90;;;;;;;16.40;80.31;99854.95;1686251;84;21538;-74
2022/07/16 03:07:18;;;;;;;4.00;3.42;;;;;;;16.42;80.14;99847.32;1677350;85;21527;-72
2022/07/16 03:09:45;;;;;;;6.55;3.55;;;;;;;16.45;79.94;99841.34;1682876;85;21538;-72
2022/07/16 03:12:12;;;;;;;3.02;2.72;;;;;;;16.47;79.95;99840.49;1670158;85;21008;-70
2022/07/16 03:14:39;;;;;;;3.62;3.22;;;;;;;16.52;79.59;99848.05;1680494;85;21576;-70
2022/07/16 03:17:06;;;;;;;4.80;4.00;;;;;;;16.55;79.43;99850.73;1665710;85;21506;-71
2022/07/16 03:19:34;;;;;;;4.55;3.95;;;;;;;16.58;79.49;99851.56;1678159;85;20993;-69
2022/07/16 03:22:02;;;;;;;4.65;3.45;;;;;;;16.59;79.56;99857.81;1686478;85;20984;-71
2022/07/16 03:24:29;;;;;;;3.75;2.95;;;;;;;16.56;79.75;99855.89;1682966;85;21041;-72
2022/07/16 03:26:56;;;;;;;4.60;2.80;;;;;;;16.53;79.88;99857.01;1683483;85;21217;-72
2022/07/16 03:29:23;;;;;;;2.75;2.55;;;;;;;16.50;79.89;99864.34;1673546;85;21071;-72
2022/07/16 03:31:50;;;;;;;3.25;2.95;;;;;;;16.46;80.15;99857.33;1673805;85;21072;-72
2022/07/16 03:34:16;;;;;;;3.92;2.90;;;;;;;16.44;80.36;99857.36;1673787;85;21029;-72
2022/07/16 03:36:43;;;;;;;3.87;3.58;;;;;;;16.44;80.54;99847.86;1672916;85;21025;-69
2022/07/16 03:39:09;;;;;;;3.77;2.70;;;;;;;16.45;80.64;99858.41;1698502;83;21078;-72
2022/07/16 03:41:37;;;;;;;7.50;3.17;;;;;;;16.45;80.70;99854.92;1673750;85;20989;-70
2022/07/16 03:44:08;;;;;;;3.27;2.95;;;;;;;16.45;80.78;99861.70;1692335;84;21041;-72
2022/07/16 03:46:35;;;;;;;5.70;3.15;;;;;;;16.43;80.92;99860.62;1674067;85;21098;-72
2022/07/16 03:49:03;;;;;;;3.12;2.72;;;;;;;16.41;81.23;99866.05;1672786;85;21054;-73
2022/07/16 03:51:29;;;;;;;6.85;3.92;;;;;;;16.40;81.58;99862.52;1674141;85;21670;-72
2022/07/16 03:53:56;;;;;;;8.73;3.52;;;;;;;16.40;81.71;99861.17;1652574;85;21013;-74
2022/07/16 03:56:24;;;;;;;4.83;3.22;;;;;;;16.41;81.85;99858.72;1681899;85;20925;-72
2022/07/16 03:58:52;;;;;;;7.03;5.75;;;;;;;16.45;82.01;99863.84;1676514;85;20988;-72
2022/07/16 04:01:20;;;;;;;3.62;3.30;;;;;;;16.50;82.11;99866.52;1676834;85;20991;-72
2022/07/16 04:03:48;;;;;;;5.25;3.85;;;;;;;16.54;82.09;99871.67;1676994;85;21485;-73
2022/07/16 04:06:14;;;;;;;5.67;4.62;;;;;;;16.56;82.16;99876.25;1676790;85;21004;-74
2022/07/16 04:08:41;;;;;;;7.00;6.17;;;;;;;16.56;82.49;99880.33;1676662;85;20972;-74
2022/07/16 04:11:08;;;;;;;8.13;5.80;;;;;;;16.54;82.95;99883.89;1661051;85;21023;-71
2022/07/16 04:13:40;;;;;;;6.50;4.25;;;;;;;16.53;83.32;99884.16;1642370;86;21101;-75
2022/07/16 04:16:08;;;;;;;5.62;4.42;;;;;;;16.54;83.63;99881.17;1649143;86;21435;-73
2022/07/16 04:18:36;;;;;;;6.53;3.42;;;;;;;16.58;83.84;99885.52;1660616;85;22321;-71
2022/07/16 04:21:05;;;;;;;3.98;3.30;;;;;;;16.64;83.71;99878.95;1676600;85;21507;-72
2022/07/16 04:23:32;;;;;;;3.92;3.52;;;;;;;16.72;83.53;99887.02;1634279;86;21094;-73
2022/07/16 04:25:59;;;;;;;6.35;3.58;;;;;;;16.77;83.10;99886.43;1649262;86;21071;-69
2022/07/16 04:28:25;;;;;;;6.60;4.08;;;;;;;16.83;82.98;99881.77;1664358;85;21614;-70
2022/07/16 04:30:52;;;;;;;4.03;3.30;;;;;;;16.87;82.83;99881.45;1676561;85;20939;-74
2022/07/16 04:33:19;;;;;;;4.33;3.27;;;;;;;16.93;82.53;99876.20;1676601;85;20948;-70
2022/07/16 04:35:48;;;;;;;7.80;3.52;;;;;;;16.98;82.21;99881.05;1676561;85;20979;-71
2022/07/16 04:38:16;;;;;;;4.62;2.98;;;;;;;17.08;82.01;99884.75;1676757;85;21059;-70
2022/07/16 04:40:44;;;;;;;6.97;2.52;;;;;;;17.18;81.70;99886.01;1676972;85;21037;-72
2022/07/16 04:43:10;;;;;;;3.70;2.85;;;;;;;17.29;81.39;99884.80;1676401;85;21046;-72
2022/07/16 04:45:37;;;;;;;3.83;2.92;;;;;;;17.40;80.98;99885.77;1676642;85;21105;-71
2022/07/16 04:48:05;;;;;;;4.47;2.77;;;;;;;17.48;80.65;99883.50;1676624;85;20996;-71
2022/07/16 04:50:32;;;;;;;7.25;3.10;;;;;;;17.53;80.33;99882.08;1638961;85;21019;-70
2022/07/16 04:53:01;;;;;;;3.70;2.37;;;;;;;17.56;80.30;99881.48;1679399;84;22137;-70
2022/07/16 04:55:27;;;;;;;13.53;3.02;;;;;;;17.62;80.26;99880.36;1685567;85;21020;-69
2022/07/16 04:57:54;;;;;;;3.42;3.05;;;;;;;17.66;80.22;99880.03;1685046;84;21048;-72
2022/07/16 05:00:23;;;;;;;5.20;3.25;;;;;;;17.72;80.17;99878.87;1685806;84;21103;-73
2022/07/16 05:02:58;;;;;;;4.10;2.90;;;;;;;17.80;80.02;99881.74;1685406;84;21553;-73
2022/07/16 05:05:33;;;;;;;4.10;3.35;;;;;;;17.89;79.93;99876.45;1685854;84;21141;-73
2022/07/16 05:08:01;;;;;;;6.12;2.95;;;;;;;17.98;79.78;99878.80;1685769;85;20985;-71
2022/07/16 05:10:29;;;;;;;6.70;2.92;;;;;;;18.06;79.37;99878.13;1685811;84;22155;-73
2022/07/16 05:12:57;;;;;;;3.42;2.72;;;;;;;18.14;78.87;99879.36;1667843;85;21009;-73
2022/07/16 05:15:24;;;;;;;2.90;2.60;;;;;;;18.20;78.32;99880.92;1685903;85;21021;-70
2022/07/16 05:17:51;;;;;;;4.30;2.70;;;;;;;18.23;77.86;99881.13;1685544;85;21545;-71
2022/07/16 05:20:18;;;;;;;6.08;2.92;;;;;;;18.25;77.48;99886.28;1685650;84;20926;-69
2022/07/16 05:22:45;;;;;;;4.35;3.10;;;;;;;18.30;77.46;99885.66;1685633;85;21095;-70
2022/07/16 05:25:14;;;;;;;2.72;2.45;;;;;;;18.36;77.35;99891.84;1685453;85;21013;-71
2022/07/16 05:27:42;;;;;;;5.22;3.20;;;;;;;18.45;76.79;99887.89;1685664;84;21033;-70
2022/07/16 05:30:09;;;;;;;5.55;3.02;;;;;;;18.50;76.29;99889.98;1668084;85;21287;-71
2022/07/16 05:32:37;;;;;;;3.87;2.85;;;;;;;18.57;75.55;99890.42;1667875;85;21061;-74
2022/07/16 05:35:05;;;;;;;7.62;2.37;;;;;;;18.60;75.05;99893.13;1685641;84;21007;-74
2022/07/16 05:37:32;;;;;;;2.83;2.40;;;;;;;18.64;74.35;99894.95;1667930;85;21009;-73
2022/07/16 05:39:59;;;;;;;3.25;2.83;;;;;;;18.69;73.92;99899.51;1685539;84;21036;-71
2022/07/16 05:42:26;;;;;;;3.98;2.58;;;;;;;18.73;73.64;99892.34;1685716;84;21263;-71
2022/07/16 05:44:55;;;;;;;3.98;2.80;;;;;;;18.76;72.96;99890.93;1685800;84;21633;-71
2022/07/16 05:47:21;;;;;;;3.65;2.75;;;;;;;18.80;72.68;99896.06;1685550;84;21051;-71
2022/07/16 05:49:48;;;;;;;6.42;4.60;;;;;;;18.83;72.24;99895.45;1667910;85;20942;-70
2022/07/16 05:52:15;;;;;;;4.22;3.47;;;;;;;18.86;71.74;99896.20;1685640;85;21113;-71
2022/07/16 05:54:42;;;;;;;3.35;2.40;;;;;;;18.89;71.63;99889.63;1685647;85;21161;-70
2022/07/16 05:57:10;;;;;;;2.25;2.05;;;;;;;18.94;71.59;99900.44;1685682;85;21343;-71
2022/07/16 05:59:37;;;;;;;3.08;2.08;;;;;;;18.99;70.71;99890.00;1685663;84;20992;-70
2022/07/16 06:02:04;;;;;;;3.95;2.47;;;;;;;19.05;69.69;99890.95;1667652;85;21028;-71
2022/07/16 06:04:30;;;;;;;2.27;2.08;;;;;;;19.13;68.58;99892.19;1685929;84;21083;-69
2022/07/16 06:06:57;;;;;;;6.75;2.10;;;;;;;19.18;67.64;99893.45;1685667;84;21213;-71
2022/07/16 06:09:25;;;;;;;2.17;1.98;;;;;;;19.24;66.94;99894.14;1684726;85;20968;-70
2022/07/16 06:11:52;;;;;;;4.12;2.47;;;;;;;19.29;66.80;99891.32;1685792;85;21506;-70
2022/07/16 06:14:19;;;;;;;5.05;3.22;;;;;;;19.32;66.50;99898.92;1685629;84;21478;-71
2022/07/16 06:16:46;;;;;;;4.37;2.27;;;;;;;19.36;65.83;99893.92;1681881;83;21048;-69
2022/07/16 06:19:13;;;;;;;4.78;2.30;;;;;;;19.40;65.72;99899.57;1684651;85;21147;-70
2022/07/16 06:21:40;;;;;;;2.05;1.82;;;;;;;19.41;65.61;99896.55;1684636;85;21004;-70
2022/07/16 06:24:07;;;;;;;3.55;2.55;;;;;;;19.46;66.08;99894.30;1666922;85;21080;-71
2022/07/16 06:26:34;;;;;;;7.60;2.72;;;;;;;19.48;66.49;99894.23;1684527;84;21091;-74
2022/07/16 06:29:01;;;;;;;4.42;2.52;;;;;;;19.52;66.54;99895.24;1684593;85;21064;-72
2022/07/16 06:31:27;;;;;;;2.75;2.05;;;;;;;19.55;66.45;99896.02;1684809;84;21151;-71
2022/07/16 06:33:54;;;;;;;3.25;1.82;;;;;;;19.60;65.25;99901.93;1685169;85;20984;-72
2022/07/16 06:36:21;;;;;;;7.00;2.50;;;;;;;19.64;63.11;99904.84;1685714;85;20950;-71
2022/07/16 06:38:48;;;;;;;4.83;2.10;;;;;;;19.67;62.73;99902.86;1685573;85;21041;-71
2022/07/16 06:41:18;;;;;;;2.33;1.82;;;;;;;19.71;62.84;99904.67;1685701;84;21016;-71
2022/07/16 06:43:45;;;;;;;3.08;2.50;;;;;;;19.76;61.90;99901.06;1685733;85;21248;-70
2022/07/16 06:46:12;;;;;;;2.17;1.98;;;;;;;19.81;62.09;99903.10;1685473;84;21073;-71
2022/07/16 06:48:40;;;;;;;2.20;1.77;;;;;;;19.86;61.36;99898.09;1685329;85;21008;-69
2022/07/16 06:51:07;;;;;;;4.83;2.05;;;;;;;19.91;60.58;99896.06;1685827;85;21074;-68
2022/07/16 06:53:38;;;;;;;6.08;2.58;;;;;;;19.96;60.71;99897.88;1683213;84;21040;-71
2022/07/16 06:56:10;;;;;;;5.65;2.00;;;;;;;20.02;60.65;99902.92;1676753;85;21090;-71
2022/07/16 06:58:36;;;;;;;3.40;2.40;;;;;;;20.09;58.96;99901.70;1676187;85;21595;-70
2022/07/16 07:01:03;;;;;;;6.78;2.00;;;;;;;20.21;56.38;99902.77;1652684;85;21056;-73
2022/07/16 07:03:31;;;;;;;2.52;2.08;;;;;;;20.21;56.38;99902.77;1676600;85;21469;-70
2022/07/16 07:05:58;;;;;;;3.47;2.00;;;;;;;20.30;56.36;99900.95;1676459;85;21083;-70
2022/07/16 07:08:26;;;;;;;1.72;1.60;;;;;;;20.36;55.56;99896.98;1676517;85;20942;-72
2022/07/16 07:10:54;;;;;;;3.62;1.47;;;;;;;20.40;54.04;99895.25;1676501;85;20942;-70
2022/07/16 07:13:21;;;;;;;1.50;1.40;;;;;;;20.47;53.92;99894.83;1676633;85;20997;-70
2022/07/16 07:15:48;;;;;;;2.25;1.87;;;;;;;20.52;54.12;99887.88;1676366;85;21047;-70
2022/07/16 07:18:15;;;;;;;1.62;1.52;;;;;;;20.53;53.43;99888.69;1676639;85;21067;-70
2022/07/16 07:20:42;;;;;;;2.72;1.57;;;;;;;20.57;52.00;99880.11;1676265;85;21136;-71
2022/07/16 07:23:11;;;;;;;1.87;1.60;;;;;;;20.66;51.08;99886.44;1676437;85;21010;-70
2022/07/16 07:25:38;;;;;;;2.60;1.77;;;;;;;20.73;50.75;99886.78;1676596;85;20999;-70
2022/07/16 07:28:07;;;;;;;3.37;1.72;;;;;;;20.80;50.47;99888.53;1676698;85;21165;-71
2022/07/16 07:30:35;;;;;;;1.60;1.50;;;;;;;20.85;50.49;99886.48;1676659;85;21033;-71
2022/07/16 07:33:02;;;;;;;1.50;1.40;;;;;;;20.93;50.78;99885.46;1677101;85;21258;-71
2022/07/16 07:35:29;;;;;;;2.92;1.70;;;;;;;21.00;51.16;99885.28;1656656;85;21015;-70
2022/07/16 07:37:55;;;;;;;2.15;1.95;;;;;;;21.07;51.38;99882.08;1676545;85;21618;-70
2022/07/16 07:40:22;;;;;;;3.17;1.32;;;;;;;21.12;51.46;99881.38;1676784;85;21090;-72
2022/07/16 07:42:49;;;;;;;2.05;1.10;;;;;;;21.16;49.22;99884.31;1661049;85;20996;-71
2022/07/16 07:45:16;;;;;;;1.25;1.10;;;;;;;21.21;47.49;99888.28;1676706;85;21754;-70
2022/07/16 07:47:44;;;;;;;2.20;1.50;;;;;;;21.26;47.36;99889.52;1676727;85;21513;-70
2022/07/16 07:50:11;;;;;;;2.67;2.33;;;;;;;21.30;46.63;99882.28;1676850;85;21046;-71
2022/07/16 07:52:37;;;;;;;3.08;1.35;;;;;;;21.35;46.81;99884.07;1676626;85;21080;-72
2022/07/16 07:55:06;;;;;;;3.55;1.50;;;;;;;21.39;46.17;99877.65;1666046;84;21489;-71
2022/07/16 07:57:34;;;;;;;6.10;3.75;;;;;;;21.38;45.52;99880.72;1662389;86;21845;-72
2022/07/16 08:00:01;;;;;;;5.03;1.80;;;;;;;21.36;45.74;99881.02;1637309;85;20988;-73
2022/07/16 08:02:28;;;;;;;1.95;1.47;;;;;;;21.37;44.55;99881.28;1627979;87;21103;-72
2022/07/16 08:04:54;;;;;;;5.25;1.80;;;;;;;21.41;45.65;99874.05;1635329;86;21990;-74
2022/07/16 08:07:21;;;;;;;2.52;2.33;;;;;;;21.44;45.46;99873.98;1643776;86;21072;-72
2022/07/16 08:09:48;;;;;;;3.08;2.85;;;;;;;21.49;45.80;99869.70;1667118;83;21482;-71
2022/07/16 08:12:17;;;;;;;2.75;1.60;;;;;;;21.55;45.20;99871.19;1710313;83;20946;-71
2022/07/16 08:14:45;;;;;;;2.40;1.60;;;;;;;21.61;45.41;99872.66;1710488;83;21010;-71
2022/07/16 08:17:13;;;;;;;3.05;1.87;;;;;;;21.68;45.59;99875.16;1710336;83;21035;-70
2022/07/16 08:19:40;;;;;;;3.65;2.17;;;;;;;21.74;45.25;99878.56;1689270;83;21022;-71
2022/07/16 08:22:08;;;;;;;2.83;1.45;;;;;;;21.79;45.38;99875.67;1681606;83;21235;-71
2022/07/16 08:27:20;;;;;;;3.47;1.30;;;;;;;21.86;45.26;99871.10;1681492;84;21006;-72
2022/07/16 08:29:47;;;;;;;5.15;1.67;;;;;;;21.93;44.86;99888.69;1680232;85;21046;-71
2022/07/16 08:32:14;;;;;;;3.02;1.77;;;;;;;21.96;44.27;99873.00;1663756;85;26872;-72
2022/07/16 08:34:41;;;;;;;1.37;1.27;;;;;;;22.00;44.46;99871.79;1681938;85;21158;-73
2022/07/16 08:37:10;;;;;;;3.77;1.98;;;;;;;22.02;44.55;99864.85;1692071;83;21550;-70
2022/07/16 08:39:42;;;;;;;2.05;1.15;;;;;;;22.08;43.93;99870.42;1702840;83;20971;-71
2022/07/16 08:42:11;;;;;;;1.70;1.57;;;;;;;22.14;43.44;99867.77;1681826;85;21046;-71
2022/07/16 08:44:44;;;;;;;2.90;1.25;;;;;;;22.19;42.65;99857.22;1681908;85;21029;-71
2022/07/16 08:47:10;;;;;;;1.30;1.20;;;;;;;22.25;42.74;99858.67;1682286;85;21808;-69
2022/07/16 08:49:38;;;;;;;4.47;1.50;;;;;;;22.32;42.92;99857.60;1681666;84;21170;-72
2022/07/16 08:52:07;;;;;;;2.25;1.70;;;;;;;22.42;42.93;99861.95;1687814;83;21022;-71
2022/07/16 08:54:33;;;;;;;4.83;1.50;;;;;;;22.55;42.46;99862.33;1694510;83;21012;-71
2022/07/16 08:57:00;;;;;;;3.37;1.35;;;;;;;22.66;41.90;99858.69;1688306;84;21047;-71
2022/07/16 08:59:27;;;;;;;2.10;1.57;;;;;;;22.77;41.61;99859.43;1687176;85;21118;-69
2022/07/16 09:01:55;;;;;;;11.10;1.72;;;;;;;22.81;41.54;99860.95;1687114;84;21013;-70
2022/07/16 09:04:24;;;;;;;1.98;1.50;;;;;;;22.86;40.48;99866.26;1685903;85;20943;-69
2022/07/16 09:06:50;;;;;;;1.82;1.52;;;;;;;22.83;40.92;99860.84;1685497;85;21103;-70
2022/07/16 09:09:17;;;;;;;1.92;1.60;;;;;;;22.79;40.80;99864.57;1685587;85;21032;-69
2022/07/16 09:11:46;;;;;;;4.70;2.20;;;;;;;22.76;40.94;99858.38;1685657;84;21010;-71
2022/07/16 09:14:15;;;;;;;1.32;1.22;;;;;;;22.77;41.31;99856.69;1685762;84;21013;-70
2022/07/16 09:16:50;;;;;;;7.60;1.62;;;;;;;22.83;40.78;99847.13;1685697;85;21012;-71
2022/07/16 09:19:27;;;;;;;2.15;1.77;;;;;;;22.86;40.68;99851.98;1667952;85;21006;-72
2022/07/16 09:22:11;;;;;;;2.45;1.72;;;;;;;22.88;40.98;99859.30;1686078;83;21084;-72
2022/07/16 09:24:44;;;;;;;2.72;2.52;;;;;;;22.90;41.12;99854.86;1673591;85;21364;-70
2022/07/16 09:27:15;;;;;;;2.15;1.35;;;;;;;22.88;41.05;99855.19;1685610;84;21544;-72
2022/07/16 09:29:48;;;;;;;4.28;1.70;;;;;;;22.84;40.96;99851.49;1685967;85;21525;-72
2022/07/16 09:32:36;;;;;;;2.45;1.85;;;;;;;22.83;41.06;99851.25;1685452;84;21362;-70
2022/07/16 09:35:13;;;;;;;2.50;1.80;;;;;;;22.80;41.12;99844.25;1685842;85;21025;-70
2022/07/16 09:37:57;;;;;;;3.95;1.80;;;;;;;22.85;41.37;99846.81;1685791;84;20997;-72
2022/07/16 09:40:41;;;;;;;1.47;1.37;;;;;;;22.89;41.82;99856.80;1673445;85;20975;-71
2022/07/16 09:43:18;;;;;;;1.95;1.30;;;;;;;22.93;41.32;99854.20;1663169;85;21547;-68
2022/07/16 09:45:57;;;;;;;1.57;1.40;;;;;;;22.93;41.13;99844.59;1664021;85;21008;-70
2022/07/16 09:48:31;;;;;;;2.77;1.25;;;;;;;22.88;41.27;99837.92;1667705;85;21013;-69
2022/07/16 09:51:18;;;;;;;2.12;1.60;;;;;;;22.84;41.63;99844.63;1690678;84;21215;-70
2022/07/16 09:53:47;;;;;;;3.55;1.30;;;;;;;22.88;41.66;99841.47;1673260;85;21658;-71
2022/07/16 09:56:17;;;;;;;3.70;2.05;;;;;;;22.95;42.34;99836.30;1661141;84;20943;-72
2022/07/16 09:58:53;;;;;;;3.92;1.50;;;;;;;23.03;42.09;99831.90;1673332;85;21025;-71
2022/07/16 10:01:21;;;;;;;4.30;2.30;;;;;;;23.15;42.38;99835.33;1669191;86;21032;-72
2022/07/16 10:03:49;;;;;;;3.42;1.67;;;;;;;23.24;42.01;99831.98;1669161;86;21080;-72
2022/07/16 10:06:18;;;;;;;1.98;1.87;;;;;;;23.42;41.91;99843.09;1680220;85;21039;-71
2022/07/16 10:08:46;;;;;;;1.87;1.70;;;;;;;23.57;41.87;99835.70;1664205;85;21567;-71
2022/07/16 10:11:12;;;;;;;2.92;1.90;;;;;;;23.61;41.08;99835.83;1663899;85;21044;-68
2022/07/16 10:13:43;;;;;;;2.15;1.52;;;;;;;23.63;41.21;99828.08;1668827;86;21316;-70
2022/07/16 10:16:09;;;;;;;2.25;1.82;;;;;;;23.61;41.67;99829.77;1680260;85;21921;-68
2022/07/16 10:18:45;;;;;;;3.02;2.40;;;;;;;23.66;41.25;99823.28;1681503;84;20924;-70
2022/07/16 10:21:21;;;;;;;3.50;1.72;;;;;;;23.68;40.69;99840.24;1652555;85;21992;-70
2022/07/16 10:24:09;;;;;;;6.22;2.37;;;;;;;23.69;40.71;99831.65;1682122;85;21228;-69
2022/07/16 10:26:36;;;;;;;2.70;1.90;;;;;;;23.72;40.73;99826.88;1681675;85;21524;-69
2022/07/16 10:29:03;;;;;;;2.58;2.15;;;;;;;23.79;40.89;99827.14;1652720;85;21324;-68
2022/07/16 10:34:37;;;;;;;4.62;2.12;;;;;;;23.88;40.43;99829.84;1652703;86;21024;-69
2022/07/16 10:37:15;;;;;;;2.85;2.20;;;;;;;23.87;40.84;99830.98;1653240;86;21102;-69
2022/07/16 10:40:12;;;;;;;2.22;1.72;;;;;;;23.83;41.20;99823.17;1655899;85;21087;-81
2022/07/16 10:42:39;;;;;;;1.92;1.80;;;;;;;23.87;40.82;99821.36;1682663;85;21111;-70
2022/07/16 10:45:09;;;;;;;1.90;1.70;;;;;;;23.92;40.85;99816.23;1647269;86;38652;-70
2022/07/16 10:47:48;;;;;;;2.37;1.80;;;;;;;23.94;40.17;99805.13;1659085;85;21456;-71
2022/07/16 10:50:22;;;;;;;3.92;2.27;;;;;;;23.97;40.39;99809.97;1681279;85;21052;-69
2022/07/16 10:52:52;;;;;;;2.47;2.15;;;;;;;24.10;40.31;99803.95;1687427;84;21086;-71
2022/07/16 10:55:31;;;;;;;1.92;1.62;;;;;;;24.23;40.30;99809.19;1677250;84;21118;-69
2022/07/16 10:57:58;;;;;;;1.87;1.77;;;;;;;24.35;39.79;99802.14;1687717;84;20957;-70
2022/07/16 11:00:25;;;;;;;1.92;1.70;;;;;;;24.47;39.25;99802.16;1663081;86;21054;-70
2022/07/16 11:02:59;;;;;;;4.87;2.95;;;;;;;24.58;39.03;99801.41;1664287;85;21017;-70
2022/07/16 11:05:30;;;;;;;1.90;1.80;;;;;;;24.60;38.98;99794.20;1680496;85;21005;-70
2022/07/16 11:08:06;;;;;;;2.83;2.02;;;;;;;24.51;38.86;99803.89;1665062;85;21525;-71
2022/07/16 11:10:34;;;;;;;2.42;1.90;;;;;;;24.46;39.52;99797.23;1656950;85;21028;-71
2022/07/16 11:13:01;;;;;;;6.20;2.17;;;;;;;24.52;39.71;99795.08;1673755;85;20965;-70
2022/07/16 11:15:29;;;;;;;5.00;2.22;;;;;;;24.59;39.50;99788.46;1690866;83;21083;-72
2022/07/16 11:17:57;;;;;;;2.10;1.80;;;;;;;24.63;39.27;99792.13;1675290;84;21141;-73
2022/07/16 11:20:35;;;;;;;1.90;1.40;;;;;;;24.69;38.97;99803.16;1690347;84;21140;-75
2022/07/16 11:23:06;;;;;;;2.40;1.65;;;;;;;24.76;38.59;99795.94;1679357;84;21056;-74
2022/07/16 11:25:33;;;;;;;1.62;1.50;;;;;;;24.76;38.19;99789.63;1668028;85;21064;-73
2022/07/16 11:28:02;;;;;;;1.82;1.72;;;;;;;24.69;38.41;99801.21;1667814;85;21106;-78
2022/07/16 11:30:31;;;;;;;3.83;1.82;;;;;;;24.68;38.84;99793.30;1664407;85;21599;-77
2022/07/16 11:32:58;;;;;;;2.83;1.75;;;;;;;24.61;39.14;99796.59;1689391;83;21121;-77
2022/07/16 11:35:26;;;;;;;2.75;2.20;;;;;;;24.66;38.96;99798.31;1685959;85;21043;-77
2022/07/16 11:37:57;;;;;;;3.45;1.67;;;;;;;24.72;38.10;99801.09;1685625;84;20978;-77
2022/07/16 11:40:35;;;;;;;1.65;1.55;;;;;;;24.73;37.18;99821.39;1685682;84;21502;-75
2022/07/16 11:43:02;;;;;;;3.25;1.82;;;;;;;24.78;37.20;99802.48;1685392;85;21118;-75
2022/07/16 11:45:41;;;;;;;2.95;1.62;;;;;;;24.82;36.99;99803.97;1677055;85;21808;-76
2022/07/16 11:48:16;;;;;;;2.72;1.92;;;;;;;24.89;37.38;99787.75;1656187;85;21606;-70
2022/07/16 11:50:43;;;;;;;4.10;1.67;;;;;;;24.91;37.41;99788.19;1684944;84;21043;-71
2022/07/16 11:53:11;;;;;;;2.83;1.82;;;;;;;24.84;37.61;99784.61;1683745;84;21111;-73